Time;durP1;ratioP1;P1;durP2;ratioP2;P2;SDS_P1;SDS_P2;PMS_P1;PMS_P2;Temp;Humidity;BMP_temperature;BMP_pressure;BME280_temperature;BME280_humidity;BME280_pressure;Samples;Min_cycle;Max_cycle;Signal;HPM_P1;HPM_P2
2023/10/17 00:01:32;;;;;;;0.50;0.40;;;6.30;99.90;;;;;;5092311;28;20628;-79
2023/10/17 00:04:00;;;;;;;0.50;0.40;;;6.30;99.90;;;;;;5093042;28;20249;-79
2023/10/17 00:06:26;;;;;;;0.50;0.40;;;6.30;99.90;;;;;;5092467;28;20205;-79
2023/10/17 00:08:54;;;;;;;0.50;0.40;;;6.30;99.90;;;;;;5092959;28;20280;-79
2023/10/17 00:11:29;;;;;;;0.60;0.50;;;6.30;99.90;;;;;;5092429;28;20311;-77
2023/10/17 00:14:07;;;;;;;0.50;0.40;;;6.30;99.90;;;;;;5092856;28;20185;-78
2023/10/17 00:16:37;;;;;;;2.25;2.15;;;6.30;99.90;;;;;;5092909;28;20196;-78
2023/10/17 00:19:09;;;;;;;0.50;0.45;;;6.30;99.90;;;;;;5093397;28;20261;-76
2023/10/17 00:21:36;;;;;;;0.50;0.40;;;6.40;99.90;;;;;;5092470;28;20213;-78
2023/10/17 00:24:08;;;;;;;0.50;0.40;;;6.40;99.90;;;;;;5092100;28;20683;-79
2023/10/17 00:26:36;;;;;;;0.50;0.50;;;6.40;99.90;;;;;;5092486;28;20203;-79
2023/10/17 00:29:05;;;;;;;4.05;3.65;;;6.30;99.90;;;;;;5092697;28;20208;-76
2023/10/17 00:31:32;;;;;;;0.50;0.40;;;6.40;99.90;;;;;;5092378;28;20216;-78
2023/10/17 00:34:00;;;;;;;0.50;0.40;;;6.40;99.90;;;;;;5092795;28;20196;-79
2023/10/17 00:36:27;;;;;;;0.50;0.40;;;6.40;99.90;;;;;;5092944;28;20298;-80
2023/10/17 00:38:59;;;;;;;0.50;0.40;;;6.40;99.90;;;;;;5092592;28;20193;-79
2023/10/17 00:41:30;;;;;;;0.50;0.40;;;6.40;99.90;;;;;;5091620;28;20269;-79
2023/10/17 00:43:57;;;;;;;0.50;0.40;;;6.40;99.90;;;;;;5092417;28;20200;-77
2023/10/17 00:46:26;;;;;;;0.50;0.40;;;6.40;99.90;;;;;;5092168;28;20201;-78
2023/10/17 00:48:56;;;;;;;0.50;0.40;;;6.40;99.90;;;;;;5092168;28;20196;-79
2023/10/17 00:51:23;;;;;;;0.50;0.40;;;6.40;99.90;;;;;;5092483;28;20612;-79
2023/10/17 00:53:51;;;;;;;0.60;0.60;;;6.40;99.90;;;;;;5077019;28;20285;-80
2023/10/17 00:56:18;;;;;;;0.50;0.40;;;6.30;99.90;;;;;;5092650;28;20313;-79
2023/10/17 00:58:45;;;;;;;0.50;0.40;;;6.40;99.90;;;;;;5092129;28;20198;-80
2023/10/17 01:01:16;;;;;;;0.50;0.40;;;6.40;99.90;;;;;;5092294;28;20221;-80
2023/10/17 01:03:45;;;;;;;0.50;0.40;;;6.40;99.90;;;;;;5092229;28;20197;-79
2023/10/17 01:06:23;;;;;;;0.50;0.40;;;6.30;99.90;;;;;;5092102;28;20210;-79
2023/10/17 01:08:50;;;;;;;0.50;0.40;;;6.30;99.90;;;;;;5092847;28;20197;-78
2023/10/17 01:11:21;;;;;;;0.50;0.40;;;6.30;99.90;;;;;;5092390;28;20242;-79
2023/10/17 01:13:51;;;;;;;0.82;0.82;;;6.30;99.90;;;;;;5092084;28;20281;-79
2023/10/17 01:16:18;;;;;;;0.50;0.50;;;6.30;99.90;;;;;;5092449;28;20208;-79
2023/10/17 01:18:47;;;;;;;0.50;0.40;;;6.30;99.90;;;;;;5092507;28;20198;-79
2023/10/17 01:21:17;;;;;;;0.50;0.40;;;6.30;99.90;;;;;;5092164;28;20216;-79
2023/10/17 01:23:44;;;;;;;0.50;0.40;;;6.30;99.90;;;;;;5092125;28;20243;-80
2023/10/17 01:26:14;;;;;;;0.50;0.40;;;6.30;99.90;;;;;;5091668;28;20823;-80
2023/10/17 01:28:45;;;;;;;0.50;0.40;;;6.30;99.90;;;;;;5092421;28;20298;-79
2023/10/17 01:31:22;;;;;;;0.50;0.40;;;6.30;99.90;;;;;;5091903;28;20699;-79
2023/10/17 01:33:51;;;;;;;0.50;0.40;;;6.30;99.90;;;;;;5092263;28;20618;-79
2023/10/17 01:36:19;;;;;;;0.50;0.40;;;6.20;99.90;;;;;;5093835;28;20669;-79
2023/10/17 01:38:46;;;;;;;0.63;0.63;;;6.20;99.90;;;;;;5096101;28;20690;-80
2023/10/17 01:41:14;;;;;;;0.50;0.40;;;6.20;99.90;;;;;;5096163;28;20230;-79
2023/10/17 01:43:41;;;;;;;0.50;0.40;;;6.20;99.90;;;;;;5095367;28;20204;-79
2023/10/17 01:46:11;;;;;;;0.50;0.40;;;6.20;99.90;;;;;;5095902;28;20215;-78
2023/10/17 01:48:38;;;;;;;0.50;0.40;;;6.20;99.90;;;;;;5096375;28;20197;-79
2023/10/17 01:51:07;;;;;;;0.50;0.40;;;6.20;99.90;;;;;;5095828;28;20216;-80
2023/10/17 01:53:35;;;;;;;0.50;0.40;;;6.20;99.90;;;;;;5096089;28;20218;-79
2023/10/17 01:56:13;;;;;;;0.50;0.40;;;6.20;99.90;;;;;;5096139;28;20228;-79
2023/10/17 01:58:45;;;;;;;0.50;0.40;;;6.20;99.90;;;;;;5095854;28;20204;-79
2023/10/17 02:01:14;;;;;;;0.50;0.40;;;6.20;99.90;;;;;;5095846;28;20223;-79
2023/10/17 02:03:41;;;;;;;0.50;0.40;;;6.20;99.90;;;;;;5076226;22;20250;-80
2023/10/17 02:06:14;;;;;;;0.50;0.40;;;6.30;99.90;;;;;;5040892;28;20232;-81
2023/10/17 02:08:42;;;;;;;0.60;0.60;;;6.30;99.90;;;;;;5066738;28;20625;-78
2023/10/17 02:11:13;;;;;;;0.50;0.40;;;6.30;99.90;;;;;;5073806;28;20201;-80
2023/10/17 02:13:45;;;;;;;3.35;3.00;;;6.30;99.90;;;;;;5072537;28;20227;-81
2023/10/17 02:16:12;;;;;;;0.50;0.40;;;6.30;99.90;;;;;;5074645;28;20222;-82
2023/10/17 02:18:39;;;;;;;0.50;0.40;;;6.30;99.90;;;;;;5074821;28;20216;-81
2023/10/17 02:21:06;;;;;;;0.50;0.40;;;6.30;99.90;;;;;;5074536;28;20263;-82
2023/10/17 02:23:42;;;;;;;0.50;0.40;;;6.30;99.90;;;;;;5074806;28;20214;-81
2023/10/17 02:26:10;;;;;;;0.50;0.40;;;6.30;99.90;;;;;;5074234;28;20310;-81
2023/10/17 02:28:46;;;;;;;0.50;0.40;;;6.30;99.90;;;;;;5074303;28;20206;-81
2023/10/17 02:31:15;;;;;;;0.50;0.40;;;6.30;99.90;;;;;;5074395;28;20213;-81
2023/10/17 02:33:43;;;;;;;0.50;0.40;;;6.30;99.90;;;;;;5075343;28;20229;-83
2023/10/17 02:36:13;;;;;;;0.50;0.40;;;6.20;99.90;;;;;;5077360;28;20200;-83
2023/10/17 02:38:40;;;;;;;0.80;0.80;;;6.20;99.90;;;;;;5076941;28;20623;-82
2023/10/17 02:41:12;;;;;;;0.50;0.40;;;6.20;99.90;;;;;;5076242;28;20202;-81
2023/10/17 02:43:40;;;;;;;0.50;0.40;;;6.20;99.90;;;;;;5076163;28;20221;-82
2023/10/17 02:46:07;;;;;;;0.50;0.40;;;6.20;99.90;;;;;;5075700;28;20220;-81
2023/10/17 02:48:42;;;;;;;0.50;0.40;;;6.20;99.90;;;;;;5075623;28;20574;-81
2023/10/17 02:53:56;;;;;;;0.50;0.40;;;6.20;99.90;;;;;;5076193;28;20309;-82
2023/10/17 02:56:23;;;;;;;0.50;0.40;;;6.10;99.90;;;;;;5076045;28;20201;-80
2023/10/17 02:58:59;;;;;;;0.50;0.40;;;6.10;99.90;;;;;;5075371;28;20199;-82
2023/10/17 03:01:27;;;;;;;0.50;0.40;;;6.10;99.90;;;;;;5076048;28;20262;-80
2023/10/17 03:03:55;;;;;;;0.50;0.40;;;6.10;99.90;;;;;;5075773;28;20252;-82
2023/10/17 03:06:22;;;;;;;0.50;0.40;;;6.10;99.90;;;;;;5076113;28;20217;-81
2023/10/17 03:08:51;;;;;;;0.50;0.40;;;6.10;99.90;;;;;;5076127;28;20258;-83
2023/10/17 03:11:26;;;;;;;0.50;0.40;;;6.10;99.90;;;;;;5075741;28;20200;-81
2023/10/17 03:13:53;;;;;;;0.50;0.40;;;6.00;99.90;;;;;;5075614;28;20224;-81
2023/10/17 03:16:25;;;;;;;0.50;0.45;;;6.10;99.90;;;;;;5075713;28;20244;-80
2023/10/17 03:18:52;;;;;;;0.50;0.40;;;6.10;99.90;;;;;;5075663;28;20653;-81
2023/10/17 03:21:29;;;;;;;0.60;0.60;;;6.00;99.90;;;;;;5075188;28;20231;-82
2023/10/17 03:24:00;;;;;;;0.50;0.40;;;6.00;99.90;;;;;;5075488;28;20228;-81
2023/10/17 03:26:29;;;;;;;0.50;0.40;;;6.00;99.90;;;;;;5058363;28;20716;-81
2023/10/17 03:28:56;;;;;;;0.50;0.40;;;6.00;99.90;;;;;;5068175;28;20221;-81
2023/10/17 03:31:26;;;;;;;0.93;0.93;;;6.00;99.90;;;;;;5074660;28;20197;-80
2023/10/17 03:33:53;;;;;;;0.50;0.40;;;6.10;99.90;;;;;;5074647;28;20291;-82
2023/10/17 03:36:41;;;;;;;0.50;0.40;;;6.10;99.90;;;;;;5074761;28;20288;-80
2023/10/17 03:39:20;;;;;;;0.50;0.40;;;6.10;99.90;;;;;;5059617;28;20193;-82
2023/10/17 03:41:48;;;;;;;0.50;0.40;;;6.10;99.90;;;;;;5074688;28;20208;-81
2023/10/17 03:44:16;;;;;;;0.60;0.60;;;6.10;99.90;;;;;;5073897;28;20224;-81
2023/10/17 03:46:47;;;;;;;0.50;0.40;;;6.00;99.90;;;;;;5074682;28;20222;-80
2023/10/17 03:49:18;;;;;;;0.50;0.40;;;6.00;99.90;;;;;;5074876;28;20208;-80
2023/10/17 03:51:52;;;;;;;0.50;0.40;;;6.00;99.90;;;;;;5074134;28;20206;-81
2023/10/17 03:54:22;;;;;;;0.50;0.40;;;6.10;99.90;;;;;;5073493;28;20225;-81
2023/10/17 03:56:55;;;;;;;0.50;0.40;;;6.10;99.90;;;;;;5073363;28;20197;-82
2023/10/17 03:59:31;;;;;;;0.50;0.40;;;6.10;99.90;;;;;;5071861;28;20259;-81
2023/10/17 04:01:59;;;;;;;0.50;0.40;;;6.10;99.90;;;;;;5055033;28;20284;-80
2023/10/17 04:04:35;;;;;;;0.50;0.40;;;6.00;99.90;;;;;;5066819;28;20545;-82
2023/10/17 04:07:06;;;;;;;0.50;0.47;;;6.00;99.90;;;;;;5072538;28;20243;-80
2023/10/17 04:09:38;;;;;;;0.50;0.50;;;6.00;99.90;;;;;;5073427;28;20660;-80
2023/10/17 04:12:08;;;;;;;0.98;0.95;;;6.00;99.90;;;;;;5073666;28;20200;-81
2023/10/17 04:14:44;;;;;;;0.50;0.40;;;6.10;99.90;;;;;;5073525;28;20193;-81
2023/10/17 04:17:14;;;;;;;0.50;0.40;;;6.10;99.90;;;;;;5068139;28;20227;-81
2023/10/17 04:19:41;;;;;;;0.50;0.40;;;6.10;99.90;;;;;;5074076;28;20195;-80
2023/10/17 04:22:15;;;;;;;0.50;0.40;;;6.10;99.90;;;;;;5072995;28;20279;-81
2023/10/17 04:24:45;;;;;;;0.50;0.40;;;6.10;99.90;;;;;;5073306;28;20574;-81
2023/10/17 04:27:22;;;;;;;0.50;0.40;;;6.10;99.90;;;;;;5057850;28;20209;-81
2023/10/17 04:29:56;;;;;;;0.50;0.40;;;6.10;99.90;;;;;;5073044;28;20199;-82
2023/10/17 04:32:26;;;;;;;0.50;0.40;;;6.20;99.90;;;;;;5072863;28;20320;-81
2023/10/17 04:34:55;;;;;;;0.50;0.40;;;6.10;99.90;;;;;;5073195;28;20197;-81
2023/10/17 04:37:32;;;;;;;0.50;0.40;;;6.20;99.90;;;;;;5072555;28;20205;-81
2023/10/17 04:40:27;;;;;;;0.50;0.40;;;6.20;99.90;;;;;;5072280;28;20202;-81
2023/10/17 04:43:22;;;;;;;0.50;0.40;;;6.20;99.90;;;;;;5071667;28;20228;-81
2023/10/17 04:45:44;;;;;;;0.50;0.40;;;6.20;99.90;;;;;;5053701;28;20725;-82
2023/10/17 04:48:11;;;;;;;0.50;0.40;;;6.20;99.90;;;;;;5067769;28;20198;-82
2023/10/17 04:50:44;;;;;;;0.50;0.40;;;6.30;99.90;;;;;;5074382;28;20196;-81
2023/10/17 04:53:28;;;;;;;0.50;0.40;;;6.20;99.90;;;;;;5056096;28;20213;-79
2023/10/17 04:56:08;;;;;;;0.50;0.40;;;6.30;99.90;;;;;;5072295;28;20721;-81
2023/10/17 04:58:39;;;;;;;0.50;0.40;;;6.20;99.90;;;;;;5062420;28;20283;-83
2023/10/17 05:01:18;;;;;;;1.80;1.35;;;6.20;99.90;;;;;;5074793;28;20723;-80
2023/10/17 05:03:50;;;;;;;0.50;0.40;;;6.20;99.90;;;;;;5072208;28;20264;-82
2023/10/17 05:06:21;;;;;;;0.50;0.40;;;6.20;99.90;;;;;;5056873;28;20227;-79
2023/10/17 05:09:12;;;;;;;0.50;0.40;;;6.20;99.90;;;;;;5072846;28;20201;-83
2023/10/17 06:17:47;;;;;;;0.50;0.40;;;6.00;99.90;;;;;;5076019;28;20581;-82
2023/10/17 06:20:17;;;;;;;0.50;0.40;;;6.00;99.90;;;;;;5075568;28;20203;-82
2023/10/17 06:28:34;;;;;;;0.50;0.40;;;6.10;99.90;;;;;;5058892;28;20190;-80
2023/10/17 06:34:00;;;;;;;0.50;0.40;;;6.20;99.90;;;;;;5075913;28;20573;-81
2023/10/17 06:36:27;;;;;;;0.50;0.40;;;6.20;99.90;;;;;;5074866;28;20187;-82
2023/10/17 06:38:55;;;;;;;0.50;0.40;;;6.20;99.90;;;;;;5056904;28;20202;-80
2023/10/17 06:41:27;;;;;;;0.50;0.40;;;6.20;99.90;;;;;;5075001;28;20186;-79
2023/10/17 06:43:56;;;;;;;0.50;0.40;;;6.20;99.90;;;;;;5075962;28;20216;-80
2023/10/17 06:46:30;;;;;;;0.50;0.40;;;6.20;99.90;;;;;;5060169;28;20627;-81
2023/10/17 06:49:08;;;;;;;0.50;0.40;;;6.20;99.90;;;;;;5077378;28;20264;-81
2023/10/17 06:51:36;;;;;;;0.50;0.40;;;6.30;99.90;;;;;;5075559;28;20190;-80
2023/10/17 06:54:07;;;;;;;0.50;0.40;;;6.30;99.90;;;;;;5074876;28;20317;-79
2023/10/17 06:56:38;;;;;;;0.50;0.40;;;6.30;99.90;;;;;;5075821;28;20190;-80
2023/10/17 06:59:22;;;;;;;0.50;0.40;;;6.30;99.90;;;;;;5074907;28;20297;-80
2023/10/17 07:02:09;;;;;;;0.50;0.40;;;6.40;99.90;;;;;;5075743;28;20216;-80
2023/10/17 07:04:37;;;;;;;0.50;0.40;;;6.40;99.90;;;;;;5062322;28;20226;-81
2023/10/17 07:07:04;;;;;;;0.73;0.73;;;6.50;99.90;;;;;;5074716;28;20301;-80
2023/10/17 07:09:37;;;;;;;0.50;0.40;;;6.50;99.90;;;;;;5074274;28;20193;-80
2023/10/17 07:12:05;;;;;;;0.50;0.40;;;6.60;99.90;;;;;;5075232;28;20252;-80
2023/10/17 07:14:36;;;;;;;0.50;0.40;;;6.70;99.90;;;;;;5077739;28;20297;-79
2023/10/17 07:17:17;;;;;;;0.50;0.40;;;6.60;99.90;;;;;;5075342;28;20247;-81
2023/10/17 07:19:57;;;;;;;0.77;0.77;;;6.60;99.90;;;;;;5075119;28;20259;-80
2023/10/17 07:22:24;;;;;;;0.50;0.40;;;6.70;99.90;;;;;;5074858;28;20275;-81
2023/10/17 07:24:52;;;;;;;0.50;0.40;;;6.70;99.90;;;;;;5075236;28;20202;-82
2023/10/17 07:27:33;;;;;;;0.50;0.40;;;6.70;99.90;;;;;;5075161;28;20231;-79
2023/10/17 07:30:03;;;;;;;0.50;0.40;;;6.80;99.90;;;;;;5073850;28;20205;-81
2023/10/17 07:32:44;;;;;;;0.50;0.40;;;6.90;99.90;;;;;;5074514;28;20252;-81
2023/10/17 07:35:15;;;;;;;0.50;0.40;;;7.00;99.90;;;;;;5076372;28;20194;-81
2023/10/17 07:37:53;;;;;;;0.50;0.40;;;7.10;99.90;;;;;;5075215;28;20290;-81
2023/10/17 07:40:31;;;;;;;0.50;0.40;;;7.20;99.90;;;;;;5074646;28;20673;-80
2023/10/17 07:43:00;;;;;;;0.73;0.73;;;7.40;99.90;;;;;;5073731;28;20221;-82
2023/10/17 07:45:37;;;;;;;0.50;0.40;;;7.60;99.90;;;;;;5074088;28;20210;-80
2023/10/17 07:48:19;;;;;;;0.50;0.50;;;7.80;99.90;;;;;;5073820;28;20229;-79
2023/10/17 07:50:47;;;;;;;0.70;0.70;;;8.50;99.90;;;;;;5074893;28;20195;-81
2023/10/17 07:53:19;;;;;;;0.50;0.45;;;9.30;99.90;;;;;;5074159;28;20566;-78
2023/10/17 07:55:48;;;;;;;0.60;0.60;;;9.40;99.90;;;;;;5073189;28;20613;-80
2023/10/17 07:58:17;;;;;;;0.50;0.40;;;9.50;99.90;;;;;;5074620;28;20205;-80
2023/10/17 08:00:48;;;;;;;0.50;0.40;;;9.40;99.90;;;;;;5074149;28;20195;-80
2023/10/17 08:03:18;;;;;;;0.93;0.93;;;9.30;99.90;;;;;;5089786;22;20241;-79
2023/10/17 08:05:58;;;;;;;0.55;0.52;;;9.10;99.90;;;;;;5082251;28;20321;-79
2023/10/17 08:08:32;;;;;;;0.70;0.65;;;9.00;99.90;;;;;;5090882;28;20236;-80
2023/10/17 08:11:00;;;;;;;1.98;1.88;;;9.00;99.90;;;;;;5092188;28;20210;-80
2023/10/17 08:13:28;;;;;;;0.50;0.47;;;9.00;99.90;;;;;;5093380;28;20585;-80
2023/10/17 08:16:04;;;;;;;0.50;0.40;;;8.90;99.90;;;;;;5087845;28;20262;-79
2023/10/17 08:18:39;;;;;;;0.50;0.50;;;8.90;99.90;;;;;;5080635;28;20261;-79
2023/10/17 08:23:52;;;;;;;1.35;1.25;;;9.40;99.90;;;;;;5092252;28;20711;-80
2023/10/17 08:26:18;;;;;;;0.50;0.40;;;9.60;99.90;;;;;;5089152;28;20304;-80
2023/10/17 08:28:50;;;;;;;1.57;1.47;;;9.70;99.90;;;;;;5085909;28;20244;-79
2023/10/17 08:31:23;;;;;;;0.50;0.40;;;10.40;99.90;;;;;;5088660;28;20495;-77
2023/10/17 08:36:44;;;;;;;0.50;0.40;;;10.80;99.90;;;;;;5082817;28;20200;-82
2023/10/17 08:42:05;;;;;;;0.60;0.60;;;12.70;99.90;;;;;;5089910;28;20244;-81
2023/10/17 08:44:33;;;;;;;0.50;0.40;;;14.10;99.90;;;;;;5093360;28;20482;-80
2023/10/17 08:47:01;;;;;;;0.60;0.47;;;15.30;99.90;;;;;;5092711;28;20464;-81
2023/10/17 08:49:29;;;;;;;0.50;0.47;;;16.30;99.90;;;;;;5090433;28;20448;-81
2023/10/17 08:51:57;;;;;;;0.50;0.40;;;17.10;99.90;;;;;;5090548;28;20449;-81
2023/10/17 08:54:24;;;;;;;0.50;0.40;;;17.90;99.90;;;;;;5093164;28;20522;-80
2023/10/17 08:56:51;;;;;;;1.70;1.63;;;18.70;99.90;;;;;;5093977;28;20436;-82
2023/10/17 08:59:30;;;;;;;0.80;0.43;;;19.30;99.90;;;;;;5092521;28;20436;-80
2023/10/17 09:02:01;;;;;;;0.50;0.40;;;19.30;98.00;;;;;;5090786;28;20460;-81
2023/10/17 09:04:33;;;;;;;0.70;0.63;;;19.60;99.50;;;;;;5093379;28;20495;-82
2023/10/17 09:07:05;;;;;;;0.50;0.30;;;20.10;96.50;;;;;;5093676;28;20478;-82
2023/10/17 09:09:33;;;;;;;2.30;2.20;;;19.90;93.00;;;;;;5090068;28;20437;-81
2023/10/17 09:14:49;;;;;;;0.50;0.40;;;18.00;94.90;;;;;;5084044;28;21184;-81
2023/10/17 09:17:28;;;;;;;0.50;0.40;;;17.20;98.20;;;;;;5089843;28;20463;-81
2023/10/17 09:20:03;;;;;;;0.50;0.40;;;16.40;99.90;;;;;;5092951;28;20443;-81
2023/10/17 09:22:38;;;;;;;0.60;0.60;;;15.70;99.90;;;;;;5090335;28;23511;-80
2023/10/17 09:25:18;;;;;;;0.50;0.40;;;15.20;99.90;;;;;;5090439;28;20483;-79
2023/10/17 09:27:50;;;;;;;0.50;0.40;;;14.60;99.90;;;;;;5077922;28;20468;-80
2023/10/17 09:30:17;;;;;;;0.50;0.40;;;13.80;99.90;;;;;;5090570;28;20435;-79
2023/10/17 09:32:44;;;;;;;0.50;0.50;;;13.40;99.90;;;;;;5088839;28;20932;-81
2023/10/17 09:35:15;;;;;;;0.50;0.40;;;12.90;99.90;;;;;;5088512;28;20522;-80
2023/10/17 09:37:43;;;;;;;0.50;0.40;;;12.70;99.90;;;;;;5080761;28;20483;-80
2023/10/17 09:40:18;;;;;;;0.80;0.80;;;12.70;99.90;;;;;;5088176;28;20517;-81
2023/10/17 09:42:47;;;;;;;0.50;0.40;;;12.50;99.90;;;;;;5081067;28;20463;-81
2023/10/17 09:45:15;;;;;;;0.70;0.67;;;12.20;99.90;;;;;;5088143;28;20547;-80
2023/10/17 09:47:44;;;;;;;2.00;1.90;;;12.20;99.90;;;;;;5091546;28;20499;-81
2023/10/17 09:50:16;;;;;;;0.57;0.57;;;12.00;99.90;;;;;;5083802;28;20502;-80
2023/10/17 09:52:45;;;;;;;0.50;0.40;;;11.80;99.90;;;;;;5080103;28;20433;-80
2023/10/17 09:55:15;;;;;;;0.50;0.40;;;11.80;99.90;;;;;;5088841;28;20526;-81
2023/10/17 09:57:45;;;;;;;0.50;0.40;;;11.90;99.90;;;;;;5083233;28;20433;-79
2023/10/17 10:00:27;;;;;;;0.50;0.40;;;11.90;99.90;;;;;;5092762;28;20444;-80
2023/10/17 10:02:55;;;;;;;0.50;0.40;;;12.00;99.90;;;;;;5092435;28;20448;-80
2023/10/17 10:05:26;;;;;;;0.50;0.50;;;12.20;99.90;;;;;;5092325;28;20540;-81
2023/10/17 10:07:53;;;;;;;0.50;0.40;;;12.30;99.90;;;;;;5095498;28;20535;-80
2023/10/17 10:10:50;;;;;;;0.50;0.40;;;12.40;99.90;;;;;;5094351;28;20432;-80
2023/10/17 10:13:17;;;;;;;0.50;0.40;;;12.40;99.90;;;;;;5091029;28;20456;-78
2023/10/17 10:15:55;;;;;;;0.50;0.40;;;12.60;99.90;;;;;;5091743;28;20862;-80
2023/10/17 10:18:58;;;;;;;0.50;0.47;;;12.70;99.90;;;;;;5092327;28;20437;-80
2023/10/17 10:21:54;;;;;;;0.50;0.40;;;13.00;99.90;;;;;;5093603;28;20462;-80
2023/10/17 10:24:26;;;;;;;0.50;0.40;;;13.20;99.90;;;;;;5100428;28;20512;-81
2023/10/17 10:27:23;;;;;;;0.50;0.40;;;13.70;99.90;;;;;;5091417;28;20515;-79
2023/10/17 10:29:52;;;;;;;1.70;1.50;;;14.50;99.90;;;;;;5084960;28;20441;-79
2023/10/17 10:32:34;;;;;;;1.27;1.07;;;15.70;99.90;;;;;;5091115;28;20531;-80
2023/10/17 10:35:01;;;;;;;0.67;0.40;;;16.50;99.90;;;;;;5093296;28;20499;-81
2023/10/17 10:37:29;;;;;;;0.90;0.90;;;17.00;99.90;;;;;;5093845;28;20872;-81
2023/10/17 10:40:11;;;;;;;0.50;0.40;;;18.30;99.90;;;;;;5089834;28;20444;-81
2023/10/17 10:42:45;;;;;;;1.50;0.80;;;19.30;96.80;;;;;;5095142;28;20471;-81
2023/10/17 10:45:35;;;;;;;0.70;0.70;;;19.70;91.80;;;;;;5096238;28;20447;-81
2023/10/17 10:48:04;;;;;;;0.50;0.40;;;20.10;89.30;;;;;;5087309;28;20469;-80
2023/10/17 10:50:33;;;;;;;0.50;0.40;;;20.60;86.20;;;;;;5094195;28;20940;-82
2023/10/17 10:53:19;;;;;;;0.50;0.50;;;21.30;84.30;;;;;;5095219;28;20499;-82
2023/10/17 10:55:52;;;;;;;0.50;0.40;;;22.00;82.70;;;;;;5096132;28;20507;-81
2023/10/17 10:58:19;;;;;;;0.50;0.30;;;22.10;75.80;;;;;;5094722;28;20440;-81
2023/10/17 11:00:47;;;;;;;0.50;0.30;;;21.50;73.80;;;;;;5083323;28;20436;-81
2023/10/17 11:03:14;;;;;;;0.50;0.30;;;21.90;78.10;;;;;;5091005;28;20444;-81
2023/10/17 11:05:52;;;;;;;0.50;0.30;;;22.40;74.00;;;;;;5091849;28;20493;-80
2023/10/17 11:08:20;;;;;;;0.50;0.40;;;22.40;72.70;;;;;;5090792;28;20480;-79
2023/10/17 11:10:47;;;;;;;0.50;0.40;;;22.30;71.20;;;;;;5083617;28;20433;-81
2023/10/17 11:13:15;;;;;;;0.50;0.40;;;22.50;71.40;;;;;;5091298;28;20443;-82
2023/10/17 11:15:43;;;;;;;0.50;0.30;;;22.20;69.00;;;;;;5091405;28;20463;-81
2023/10/17 11:18:11;;;;;;;0.50;0.30;;;22.30;71.70;;;;;;5091283;28;20545;-81
2023/10/17 11:20:40;;;;;;;0.50;0.30;;;22.40;70.20;;;;;;5093832;28;20548;-80
2023/10/17 11:23:11;;;;;;;0.60;0.60;;;22.20;70.90;;;;;;5095033;28;20435;-81
2023/10/17 11:25:44;;;;;;;0.50;0.40;;;22.10;70.50;;;;;;5092566;28;20444;-81
2023/10/17 11:28:11;;;;;;;0.50;0.30;;;21.70;72.10;;;;;;5101057;28;20506;-77
2023/10/17 11:30:41;;;;;;;0.50;0.30;;;21.60;70.00;;;;;;5096389;28;20441;-81
2023/10/17 11:33:11;;;;;;;0.50;0.40;;;21.70;70.70;;;;;;5094381;28;20439;-80
2023/10/17 11:35:39;;;;;;;0.50;0.50;;;21.80;72.20;;;;;;5085732;28;20436;-80
2023/10/17 11:38:07;;;;;;;0.50;0.30;;;22.20;70.50;;;;;;5096661;28;20523;-81
2023/10/17 11:40:44;;;;;;;0.57;0.57;;;22.30;68.80;;;;;;5092356;28;20437;-80
2023/10/17 11:43:20;;;;;;;0.50;0.30;;;22.50;70.00;;;;;;5097283;28;20581;-80
2023/10/17 11:45:48;;;;;;;0.50;0.30;;;22.50;70.90;;;;;;5091351;28;20435;-82
2023/10/17 11:48:29;;;;;;;0.50;0.30;;;22.50;69.40;;;;;;5080364;28;20469;-80
2023/10/17 11:51:12;;;;;;;0.50;0.30;;;22.70;69.70;;;;;;5072147;28;20437;-83
2023/10/17 11:54:03;;;;;;;0.50;0.30;;;22.70;68.20;;;;;;5085239;28;20456;-84
2023/10/17 11:56:31;;;;;;;0.50;0.30;;;23.00;69.90;;;;;;5094013;28;20837;-84
2023/10/17 11:59:01;;;;;;;0.50;0.40;;;22.30;69.10;;;;;;5098974;28;20874;-83
2023/10/17 12:01:28;;;;;;;0.50;0.30;;;20.90;68.00;;;;;;5098823;28;20441;-85
2023/10/17 12:03:56;;;;;;;0.50;0.30;;;19.90;70.00;;;;;;5089286;28;20457;-85
2023/10/17 12:06:26;;;;;;;0.50;0.40;;;18.80;73.80;;;;;;5093142;28;20443;-80
2023/10/17 12:08:53;;;;;;;0.50;0.40;;;17.90;76.70;;;;;;5068088;28;20516;-82
2023/10/17 12:11:20;;;;;;;0.50;0.30;;;17.40;80.80;;;;;;5078928;28;20932;-80
2023/10/17 12:13:47;;;;;;;0.70;0.67;;;17.10;83.30;;;;;;5078790;28;20453;-81
2023/10/17 12:16:17;;;;;;;0.50;0.40;;;16.60;81.90;;;;;;5076846;28;20548;-81
2023/10/17 12:18:45;;;;;;;0.60;0.40;;;16.20;84.90;;;;;;5081084;28;20432;-81
2023/10/17 12:21:14;;;;;;;0.50;0.40;;;16.10;91.00;;;;;;5097629;28;20477;-81
2023/10/17 12:23:41;;;;;;;0.50;0.50;;;15.90;91.70;;;;;;5079802;28;20491;-80
2023/10/17 12:26:13;;;;;;;0.50;0.40;;;15.60;92.00;;;;;;5081237;28;20433;-79
2023/10/17 12:28:41;;;;;;;0.50;0.40;;;15.30;94.40;;;;;;5085369;28;20483;-80
2023/10/17 12:31:08;;;;;;;0.50;0.40;;;15.20;96.70;;;;;;5086297;28;20982;-82
2023/10/17 12:33:37;;;;;;;0.50;0.40;;;15.10;99.50;;;;;;5094396;28;20463;-81
2023/10/17 12:36:04;;;;;;;0.50;0.40;;;15.10;99.90;;;;;;5097188;28;20523;-81
2023/10/17 12:38:34;;;;;;;1.60;1.50;;;14.80;99.90;;;;;;5088781;28;20513;-79
2023/10/17 12:41:03;;;;;;;0.50;0.50;;;14.80;99.90;;;;;;5083878;28;20424;-82
2023/10/17 12:43:30;;;;;;;0.60;0.50;;;14.80;99.90;;;;;;5102512;28;20509;-82
2023/10/17 12:45:57;;;;;;;0.90;0.90;;;14.60;99.90;;;;;;5102928;28;20467;-83
2023/10/17 12:48:24;;;;;;;0.50;0.40;;;15.00;99.90;;;;;;5100619;28;20479;-84
2023/10/17 12:50:52;;;;;;;0.50;0.40;;;15.70;99.90;;;;;;5082113;28;20432;-87
2023/10/17 12:53:19;;;;;;;0.50;0.40;;;16.40;99.90;;;;;;5083448;28;20881;-83
2023/10/17 12:55:45;;;;;;;0.50;0.40;;;17.30;97.50;;;;;;5092622;28;20507;-86
2023/10/17 12:58:12;;;;;;;0.50;0.30;;;18.00;95.70;;;;;;5096925;28;20440;-81
2023/10/17 13:00:40;;;;;;;0.87;0.50;;;18.70;92.00;;;;;;5095587;28;20460;-85
2023/10/17 13:03:07;;;;;;;0.50;0.40;;;19.00;88.60;;;;;;5104947;28;20458;-86
2023/10/17 13:05:34;;;;;;;0.50;0.30;;;19.40;87.70;;;;;;5094872;28;20444;-85
2023/10/17 13:08:04;;;;;;;0.50;0.30;;;19.60;85.70;;;;;;5082878;28;20845;-86
2023/10/17 13:10:31;;;;;;;0.50;0.30;;;19.90;84.00;;;;;;5092966;28;20428;-84
2023/10/17 13:12:59;;;;;;;0.60;0.40;;;20.40;86.40;;;;;;5105219;28;20436;-86
2023/10/17 13:15:26;;;;;;;0.50;0.40;;;20.60;83.70;;;;;;5088610;28;20460;-83
2023/10/17 13:17:55;;;;;;;0.50;0.40;;;21.20;85.00;;;;;;5082021;28;20523;-84
2023/10/17 13:20:28;;;;;;;0.50;0.30;;;21.30;83.30;;;;;;5080747;28;20464;-84
2023/10/17 13:22:56;;;;;;;0.50;0.30;;;21.30;77.90;;;;;;5082460;28;20444;-85
2023/10/17 13:25:24;;;;;;;0.50;0.40;;;21.20;77.20;;;;;;5081858;28;20453;-86
2023/10/17 13:27:51;;;;;;;0.50;0.30;;;21.30;77.80;;;;;;5084989;28;20555;-86
2023/10/17 13:30:19;;;;;;;0.50;0.30;;;21.50;79.10;;;;;;5094422;28;20466;-85
2023/10/17 13:32:52;;;;;;;0.50;0.30;;;21.70;75.80;;;;;;5095071;28;20440;-86
2023/10/17 13:35:19;;;;;;;0.50;0.40;;;21.30;74.70;;;;;;5094317;28;20461;-86
2023/10/17 13:37:52;;;;;;;0.50;0.40;;;20.90;74.70;;;;;;5094521;28;20856;-84
2023/10/17 13:40:19;;;;;;;0.50;0.30;;;20.90;76.80;;;;;;5085037;28;20440;-84
2023/10/17 13:42:47;;;;;;;0.50;0.50;;;20.80;77.70;;;;;;5087206;28;20532;-86
2023/10/17 13:45:14;;;;;;;0.50;0.30;;;20.80;76.10;;;;;;5101497;28;20606;-85
2023/10/17 13:47:41;;;;;;;0.50;0.30;;;20.90;77.90;;;;;;5106960;28;20464;-86
2023/10/17 13:50:13;;;;;;;0.50;0.30;;;20.90;76.80;;;;;;5102688;28;20823;-85
2023/10/17 13:52:41;;;;;;;0.50;0.30;;;21.00;75.80;;;;;;5103854;28;20436;-86
2023/10/17 13:55:11;;;;;;;0.50;0.40;;;20.70;75.40;;;;;;5096316;28;20487;-83
2023/10/17 13:57:42;;;;;;;0.50;0.30;;;20.40;75.90;;;;;;5088659;28;20445;-85
2023/10/17 14:00:18;;;;;;;1.13;0.57;;;20.00;75.40;;;;;;5095396;28;20475;-82
2023/10/17 14:02:49;;;;;;;0.50;0.30;;;19.80;77.30;;;;;;5097176;28;20805;-81
2023/10/17 14:05:16;;;;;;;0.50;0.40;;;19.90;78.70;;;;;;5097033;28;20583;-82
2023/10/17 14:07:43;;;;;;;0.50;0.40;;;19.70;78.40;;;;;;5084311;28;20447;-82
2023/10/17 14:10:12;;;;;;;0.50;0.40;;;19.40;78.10;;;;;;5076695;28;20440;-82
2023/10/17 14:12:41;;;;;;;0.50;0.30;;;19.20;79.80;;;;;;5075834;28;20463;-82
2023/10/17 14:15:10;;;;;;;1.10;1.00;;;19.50;83.50;;;;;;5076346;28;20448;-79
2023/10/17 14:17:37;;;;;;;0.50;0.30;;;19.50;80.80;;;;;;5075703;28;20437;-82
2023/10/17 14:20:15;;;;;;;0.50;0.30;;;19.10;79.60;;;;;;5075838;28;20507;-81
2023/10/17 14:22:57;;;;;;;0.50;0.40;;;18.90;81.20;;;;;;5075624;28;20473;-81
2023/10/17 14:28:08;;;;;;;0.50;0.37;;;18.70;82.80;;;;;;5066996;28;20473;-81
2023/10/17 14:30:40;;;;;;;0.50;0.30;;;19.00;84.10;;;;;;5075449;28;20432;-82
2023/10/17 14:33:08;;;;;;;2.60;1.57;;;18.80;82.80;;;;;;5076053;28;20429;-80
2023/10/17 14:35:36;;;;;;;0.50;0.30;;;19.00;84.60;;;;;;5076274;28;20437;-82
2023/10/17 14:38:03;;;;;;;0.50;0.30;;;18.80;86.10;;;;;;5076417;28;20436;-82
2023/10/17 14:40:30;;;;;;;0.50;0.30;;;18.80;85.80;;;;;;5076039;28;20429;-82
2023/10/17 14:42:57;;;;;;;0.50;0.40;;;18.70;89.10;;;;;;5075796;28;20425;-82
2023/10/17 14:45:25;;;;;;;0.50;0.30;;;18.70;87.70;;;;;;5076065;28;20495;-81